createdAt,value
2022-11-17T00:00:42.989Z,9.65
2022-11-17T00:03:15.982Z,9.66
2022-11-17T00:05:44.871Z,9.66
2022-11-17T00:08:12.017Z,9.63
2022-11-17T00:10:38.932Z,9.64
2022-11-17T00:13:24.553Z,9.66
2022-11-17T00:15:51.851Z,9.63
2022-11-17T00:18:37.902Z,9.62
2022-11-17T00:21:21.918Z,9.64
2022-11-17T00:23:50.687Z,9.66
2022-11-17T00:26:19.006Z,9.62
2022-11-17T00:28:46.234Z,9.68
2022-11-17T00:31:33.719Z,9.69
2022-11-17T00:34:07.294Z,9.65
2022-11-17T00:36:43.414Z,9.64
2022-11-17T00:39:11.846Z,9.62
2022-11-17T00:41:39.664Z,9.62
2022-11-17T00:44:07.779Z,9.66
2022-11-17T00:46:37.247Z,9.69
2022-11-17T00:49:05.991Z,9.65
2022-11-17T00:51:33.891Z,9.72
2022-11-17T00:54:02.181Z,9.71
2022-11-17T00:56:29.686Z,9.78
2022-11-17T00:58:56.621Z,9.82
2022-11-17T01:01:24.756Z,9.84
2022-11-17T01:04:03.315Z,9.93
2022-11-17T01:06:46.231Z,9.93
2022-11-17T01:09:15.059Z,9.93
2022-11-17T01:11:43.193Z,10.01
2022-11-17T01:14:17.716Z,9.96
2022-11-17T01:16:45.891Z,10.08
2022-11-17T01:19:14.729Z,10.09
2022-11-17T01:21:41.786Z,10.10
2022-11-17T01:24:11.687Z,10.07
2022-11-17T01:26:40.045Z,10.01
2022-11-17T01:29:08.501Z,10.00
2022-11-17T01:31:38.684Z,10.04
2022-11-17T01:34:07.412Z,10.03
2022-11-17T01:36:57.662Z,10.10
2022-11-17T01:39:26.623Z,10.09
2022-11-17T01:41:55.229Z,10.13
2022-11-17T01:44:54.235Z,10.18
2022-11-17T01:47:28.902Z,10.17
2022-11-17T01:50:08.436Z,10.02
2022-11-17T01:52:38.560Z,10.09
2022-11-17T01:55:08.794Z,10.05
2022-11-17T01:58:01.492Z,10.01
2022-11-17T02:00:32.009Z,10.01
2022-11-17T02:02:59.717Z,10.03
2022-11-17T02:05:55.267Z,10.03
2022-11-17T02:08:25.669Z,10.04
2022-11-17T02:10:53.933Z,9.96
2022-11-17T02:13:22.747Z,10.08
2022-11-17T02:15:50.434Z,10.02
2022-11-17T02:18:18.498Z,10.04
2022-11-17T02:21:10.767Z,10.03
2022-11-17T02:23:40.808Z,10.04
2022-11-17T02:26:26.894Z,9.98
2022-11-17T02:29:15.251Z,9.96
2022-11-17T02:31:59.147Z,9.87
2022-11-17T02:34:50.649Z,9.87
2022-11-17T02:37:33.130Z,9.86
2022-11-17T02:40:04.043Z,9.87
2022-11-17T02:42:57.617Z,9.86
2022-11-17T02:45:37.540Z,9.89
2022-11-17T02:48:11.897Z,9.94
2022-11-17T02:50:41.554Z,9.92
2022-11-17T02:53:09.216Z,9.97
2022-11-17T02:55:37.589Z,9.92
2022-11-17T02:58:09.857Z,9.99
2022-11-17T03:00:49.776Z,10.00
2022-11-17T03:03:31.798Z,9.95
2022-11-17T03:06:16.539Z,10.07
2022-11-17T03:08:58.880Z,10.17
2022-11-17T03:11:40.116Z,10.13
2022-11-17T03:14:21.236Z,10.11
2022-11-17T03:17:03.428Z,10.11
2022-11-17T03:19:38.630Z,10.06
2022-11-17T03:22:15.512Z,10.09
2022-11-17T03:24:48.968Z,10.06
2022-11-17T03:27:31.087Z,10.00
2022-11-17T03:30:09.638Z,9.96
2022-11-17T03:32:41.409Z,9.96
2022-11-17T03:35:12.637Z,9.98
2022-11-17T03:37:46.606Z,9.97
2022-11-17T03:40:18.763Z,9.99
2022-11-17T03:42:52.859Z,10.04
2022-11-17T03:45:26.233Z,10.03
2022-11-17T03:48:09.053Z,10.03
2022-11-17T03:50:46.399Z,9.94
2022-11-17T03:53:14.418Z,9.99
2022-11-17T03:55:59.419Z,9.91
2022-11-17T03:58:33.693Z,9.89
2022-11-17T04:01:03.713Z,9.91
2022-11-17T04:03:34.339Z,9.96
2022-11-17T04:06:02.049Z,9.95
2022-11-17T04:08:30.903Z,9.92
2022-11-17T04:11:17.001Z,9.92
2022-11-17T04:14:02.352Z,9.99
2022-11-17T04:16:29.970Z,10.05
2022-11-17T04:18:58.969Z,9.92
2022-11-17T04:21:26.597Z,10.03
2022-11-17T04:23:53.672Z,10.04
2022-11-17T04:26:39.760Z,9.96
2022-11-17T04:29:07.280Z,9.96
2022-11-17T04:31:35.373Z,9.97
2022-11-17T04:34:05.182Z,10.02
2022-11-17T04:36:41.006Z,9.98
2022-11-17T04:39:07.986Z,9.98
2022-11-17T04:41:54.198Z,9.91
2022-11-17T04:44:23.994Z,9.86
2022-11-17T04:46:55.512Z,9.69
2022-11-17T04:49:23.986Z,9.72
2022-11-17T04:51:52.818Z,9.65
2022-11-17T04:54:24.296Z,9.57
2022-11-17T04:56:52.552Z,9.53
2022-11-17T04:59:19.824Z,9.54
2022-11-17T05:01:47.386Z,9.52
2022-11-17T05:04:35.799Z,9.47
2022-11-17T05:07:03.101Z,9.40
2022-11-17T05:09:31.324Z,9.42
2022-11-17T05:12:17.385Z,9.45
2022-11-17T05:14:48.782Z,9.45
2022-11-17T05:17:15.712Z,9.35
2022-11-17T05:19:47.604Z,9.25
2022-11-17T05:22:37.858Z,9.25
2022-11-17T05:25:07.045Z,9.22
2022-11-17T05:27:38.572Z,9.23
2022-11-17T05:30:10.243Z,9.21
2022-11-17T05:32:38.314Z,9.26
2022-11-17T05:35:08.639Z,9.28
2022-11-17T05:37:38.655Z,9.26
2022-11-17T05:40:06.796Z,9.32
2022-11-17T05:42:35.998Z,9.40
2022-11-17T05:45:08.491Z,9.46
2022-11-17T05:47:39.109Z,9.55
2022-11-17T05:50:07.183Z,9.62
2022-11-17T05:52:38.306Z,9.66
2022-11-17T05:55:10.850Z,9.77
2022-11-17T05:57:38.598Z,9.82
2022-11-17T06:00:06.558Z,9.87
2022-11-17T06:02:53.298Z,9.78
2022-11-17T06:05:24.024Z,9.87
2022-11-17T06:07:58.476Z,9.91
2022-11-17T06:10:27.222Z,9.96
2022-11-17T06:12:54.304Z,10.01
2022-11-17T06:15:22.365Z,10.07
2022-11-17T06:17:55.738Z,10.17
2022-11-17T06:20:34.803Z,10.32
2022-11-17T06:23:04.984Z,10.49
2022-11-17T06:25:34.960Z,10.56
2022-11-17T06:28:07.031Z,10.76
2022-11-17T06:30:39.019Z,10.94
2022-11-17T06:33:12.506Z,11.04
2022-11-17T06:35:41.673Z,11.10
2022-11-17T06:38:09.549Z,11.13
2022-11-17T06:40:39.867Z,11.12
2022-11-17T06:43:09.748Z,11.14
2022-11-17T06:45:39.224Z,11.16
2022-11-17T06:48:08.890Z,11.25
2022-11-17T06:50:36.166Z,11.31
2022-11-17T06:53:07.370Z,11.37
2022-11-17T06:55:41.729Z,11.36
2022-11-17T06:58:11.824Z,11.43
2022-11-17T07:00:42.578Z,11.41
2022-11-17T07:03:12.945Z,11.43
2022-11-17T07:05:40.865Z,11.41
2022-11-17T07:08:09.686Z,11.55
2022-11-17T07:10:37.292Z,11.60
2022-11-17T07:13:05.242Z,11.65
2022-11-17T07:15:32.551Z,11.67
2022-11-17T07:18:00.396Z,11.73
2022-11-17T07:20:27.690Z,11.75
2022-11-17T07:22:59.492Z,11.79
2022-11-17T07:25:26.964Z,11.80
2022-11-17T07:27:59.993Z,11.74
2022-11-17T07:30:28.157Z,11.75
2022-11-17T07:32:55.684Z,11.78
2022-11-17T07:35:23.524Z,11.80
2022-11-17T07:38:02.174Z,11.90
2022-11-17T07:40:30.687Z,11.90
2022-11-17T07:42:58.121Z,12.00
2022-11-17T07:45:31.399Z,12.02
2022-11-17T07:48:01.470Z,12.08
2022-11-17T07:50:30.122Z,12.16
2022-11-17T07:52:57.937Z,12.22
2022-11-17T07:55:26.400Z,12.24
2022-11-17T07:58:02.400Z,12.22
2022-11-17T08:00:33.899Z,12.28
2022-11-17T08:03:03.843Z,12.32
2022-11-17T08:05:39.915Z,12.36
2022-11-17T08:08:13.227Z,12.29
2022-11-17T08:10:43.192Z,12.27
2022-11-17T08:13:17.621Z,12.28
2022-11-17T08:15:45.460Z,12.23
2022-11-17T08:18:13.518Z,12.27
2022-11-17T08:20:40.616Z,12.22
2022-11-17T08:23:08.675Z,12.24
2022-11-17T08:25:36.910Z,12.26
2022-11-17T08:28:04.701Z,12.28
2022-11-17T08:30:36.159Z,12.27
2022-11-17T08:33:05.320Z,12.26
2022-11-17T08:35:37.379Z,12.25
2022-11-17T08:38:05.459Z,12.36
2022-11-17T08:40:33.609Z,12.36
2022-11-17T08:43:01.774Z,12.38
2022-11-17T08:45:29.816Z,12.33
2022-11-17T08:47:57.984Z,12.43
2022-11-17T08:50:26.870Z,12.39
2022-11-17T08:52:54.231Z,12.47
2022-11-17T08:55:21.724Z,12.49
2022-11-17T08:57:52.406Z,12.52
2022-11-17T09:00:21.909Z,12.59
2022-11-17T09:02:49.806Z,12.64
2022-11-17T09:05:17.071Z,12.72
2022-11-17T09:07:45.058Z,12.75
2022-11-17T09:10:12.924Z,12.72
2022-11-17T09:12:41.330Z,12.84
2022-11-17T09:15:09.390Z,12.80
2022-11-17T09:17:40.680Z,12.78
2022-11-17T09:20:10.978Z,12.80
2022-11-17T09:22:39.883Z,12.86
2022-11-17T09:25:13.376Z,12.87
2022-11-17T09:27:49.408Z,12.92
2022-11-17T09:30:22.156Z,13.02
2022-11-17T09:32:50.797Z,13.19
2022-11-17T09:35:19.077Z,13.35
2022-11-17T09:37:47.479Z,13.51
2022-11-17T09:40:19.725Z,13.62
2022-11-17T09:42:50.856Z,13.77
2022-11-17T09:45:26.162Z,13.89
2022-11-17T09:48:12.385Z,13.98
2022-11-17T09:50:46.250Z,13.92
2022-11-17T09:53:31.168Z,14.08
2022-11-17T09:56:03.168Z,14.27
2022-11-17T09:58:41.278Z,14.37
2022-11-17T10:01:21.655Z,14.44
2022-11-17T10:03:51.870Z,14.49
2022-11-17T10:06:21.852Z,14.56
2022-11-17T10:09:13.311Z,14.57
2022-11-17T10:11:43.697Z,14.63
2022-11-17T10:14:18.879Z,14.67
2022-11-17T10:16:55.535Z,14.70
2022-11-17T10:19:32.513Z,14.76
2022-11-17T10:22:06.975Z,14.78
2022-11-17T10:25:01.441Z,14.73
2022-11-17T10:27:28.974Z,14.69
2022-11-17T10:30:00.183Z,14.63
2022-11-17T10:32:31.410Z,14.55
2022-11-17T10:35:22.477Z,14.43
2022-11-17T10:38:09.376Z,14.32
2022-11-17T10:40:39.514Z,14.30
2022-11-17T10:43:18.119Z,14.22
2022-11-17T10:45:46.065Z,14.14
2022-11-17T10:48:29.983Z,14.04
2022-11-17T10:51:11.306Z,14.00
2022-11-17T10:53:46.493Z,13.98
2022-11-17T10:56:22.346Z,13.93
2022-11-17T10:58:59.332Z,13.91
2022-11-17T11:01:33.891Z,13.81
2022-11-17T11:04:04.032Z,13.74
2022-11-17T11:06:34.911Z,13.69
2022-11-17T11:09:23.672Z,13.60
2022-11-17T11:11:58.958Z,13.61
2022-11-17T11:14:44.653Z,13.57
2022-11-17T11:17:14.795Z,13.46
2022-11-17T11:19:46.528Z,13.45
2022-11-17T11:22:35.103Z,13.53
2022-11-17T11:25:05.767Z,13.61
2022-11-17T11:28:00.048Z,13.67
2022-11-17T11:30:27.892Z,13.81
2022-11-17T11:33:11.537Z,13.97
2022-11-17T11:35:58.299Z,13.84
2022-11-17T11:38:55.301Z,13.91
2022-11-17T11:41:40.788Z,13.77
2022-11-17T11:44:20.510Z,13.86
2022-11-17T11:47:10.185Z,13.96
2022-11-17T11:49:56.867Z,14.04
2022-11-17T11:53:21.039Z,14.16
2022-11-17T11:55:53.306Z,14.26
2022-11-17T11:58:23.270Z,14.36
2022-11-17T12:00:56.591Z,14.36
2022-11-17T12:04:25.816Z,14.29
2022-11-17T12:07:34.252Z,14.46
2022-11-17T12:10:21.592Z,14.56
2022-11-17T12:13:14.022Z,14.60
2022-11-17T12:15:41.864Z,14.72
2022-11-17T12:18:50.480Z,14.84
2022-11-17T12:21:26.317Z,14.75
2022-11-17T12:23:54.998Z,14.70
2022-11-17T12:26:31.196Z,14.58
2022-11-17T12:29:20.540Z,14.61
2022-11-17T12:31:49.608Z,14.60
2022-11-17T12:34:35.052Z,14.65
2022-11-17T12:37:16.034Z,14.55
2022-11-17T12:40:04.054Z,14.57
2022-11-17T12:42:34.087Z,14.59
2022-11-17T12:45:07.161Z,14.60
2022-11-17T12:47:37.704Z,14.63
2022-11-17T12:50:37.945Z,14.68
2022-11-17T12:53:14.146Z,14.69
2022-11-17T12:55:48.073Z,14.79
2022-11-17T12:58:36.903Z,14.94
2022-11-17T13:01:29.959Z,15.05
2022-11-17T13:04:06.966Z,15.13
2022-11-17T13:07:03.271Z,15.17
2022-11-17T13:09:33.471Z,15.18
2022-11-17T13:12:11.071Z,15.23
2022-11-17T13:14:58.891Z,15.11
2022-11-17T13:17:31.863Z,15.18
2022-11-17T13:20:04.463Z,15.06
2022-11-17T13:22:33.593Z,14.97
2022-11-17T13:25:13.276Z,14.88
2022-11-17T13:27:50.761Z,14.80
2022-11-17T13:30:25.725Z,14.86
2022-11-17T13:32:54.248Z,14.70
2022-11-17T13:35:30.692Z,14.67
2022-11-17T13:38:22.226Z,14.71
2022-11-17T13:40:57.602Z,14.58
2022-11-17T13:43:27.104Z,14.70
2022-11-17T13:45:55.854Z,14.61
2022-11-17T13:48:37.329Z,14.52
2022-11-17T13:51:17.032Z,14.53
2022-11-17T13:53:47.703Z,14.50
2022-11-17T13:56:34.738Z,14.54
2022-11-17T13:59:21.935Z,14.52
2022-11-17T14:02:23.977Z,14.39
2022-11-17T14:05:09.974Z,14.43
2022-11-17T14:07:43.553Z,14.40
2022-11-17T14:10:22.879Z,14.36
2022-11-17T14:13:24.405Z,14.28
2022-11-17T14:15:55.628Z,14.24
2022-11-17T14:18:37.790Z,14.16
2022-11-17T14:21:17.940Z,14.15
2022-11-17T14:23:46.061Z,14.10
2022-11-17T14:26:27.373Z,14.10
2022-11-17T14:29:02.528Z,14.08
2022-11-17T14:31:31.703Z,13.95
2022-11-17T14:34:07.340Z,13.98
2022-11-17T14:36:37.859Z,13.77
2022-11-17T14:39:18.997Z,13.86
2022-11-17T14:41:48.759Z,13.82
2022-11-17T14:44:19.342Z,13.82
2022-11-17T14:46:47.006Z,13.75
2022-11-17T14:49:15.631Z,13.67
2022-11-17T14:51:43.319Z,13.64
2022-11-17T14:54:10.988Z,13.56
2022-11-17T14:56:38.708Z,13.53
2022-11-17T14:59:06.683Z,13.47
2022-11-17T15:01:38.840Z,13.43
2022-11-17T15:04:34.479Z,13.18
2022-11-17T15:06:55.819Z,13.34
2022-11-17T15:09:23.042Z,13.24
2022-11-17T15:11:52.853Z,13.29
2022-11-17T15:14:20.383Z,13.25
2022-11-17T15:16:49.330Z,13.24
2022-11-17T15:19:16.838Z,13.21
2022-11-17T15:21:48.046Z,13.15
2022-11-17T15:24:15.605Z,13.10
2022-11-17T15:26:42.909Z,13.09
2022-11-17T15:29:15.286Z,13.03
2022-11-17T15:31:43.092Z,12.96
2022-11-17T15:34:14.415Z,13.01
2022-11-17T15:36:48.138Z,12.96
2022-11-17T15:39:16.186Z,12.93
2022-11-17T15:41:43.842Z,12.88
2022-11-17T15:44:15.956Z,12.86
2022-11-17T15:46:47.955Z,12.87
2022-11-17T15:49:16.800Z,12.84
2022-11-17T15:51:50.421Z,12.84
2022-11-17T15:54:26.322Z,12.75
2022-11-17T15:56:54.394Z,12.79
2022-11-17T15:59:24.416Z,12.77
2022-11-17T16:01:51.675Z,12.73
2022-11-17T16:04:19.678Z,12.74
2022-11-17T16:06:47.777Z,12.71
2022-11-17T16:09:16.022Z,12.65
2022-11-17T16:11:43.927Z,12.60
2022-11-17T16:14:12.089Z,12.57
2022-11-17T16:16:39.566Z,12.49
2022-11-17T16:19:07.474Z,12.44
2022-11-17T16:21:35.015Z,12.40
2022-11-17T16:24:03.614Z,12.35
2022-11-17T16:26:31.304Z,12.33
2022-11-17T16:29:00.741Z,12.31
2022-11-17T16:31:30.426Z,12.07
2022-11-17T16:34:01.928Z,12.21
2022-11-17T16:36:35.618Z,12.06
2022-11-17T16:39:06.789Z,12.03
2022-11-17T16:41:38.773Z,12.03
2022-11-17T16:44:13.006Z,12.00
2022-11-17T16:46:46.817Z,11.97
2022-11-17T16:49:23.450Z,11.94
2022-11-17T16:51:54.154Z,11.88
2022-11-17T16:54:21.566Z,11.83
2022-11-17T16:56:48.812Z,11.78
2022-11-17T16:59:16.963Z,11.77
2022-11-17T17:01:44.498Z,11.71
2022-11-17T17:04:12.792Z,11.61
2022-11-17T17:06:42.747Z,11.61
2022-11-17T17:09:12.213Z,11.60
2022-11-17T17:11:50.824Z,11.59
2022-11-17T17:14:19.131Z,11.59
2022-11-17T17:17:10.240Z,11.60
2022-11-17T17:19:40.476Z,11.60
2022-11-17T17:22:07.913Z,11.61
2022-11-17T17:24:35.076Z,11.53
2022-11-17T17:27:02.645Z,11.53
2022-11-17T17:29:39.569Z,11.53
2022-11-17T17:32:07.064Z,11.48
2022-11-17T17:35:04.362Z,11.46
2022-11-17T17:37:37.135Z,11.42
2022-11-17T17:40:20.155Z,11.35
2022-11-17T17:42:47.675Z,11.40
2022-11-17T17:45:15.131Z,11.42
2022-11-17T17:47:42.861Z,11.38
2022-11-17T17:50:10.127Z,11.31
2022-11-17T17:52:37.760Z,11.30
2022-11-17T17:55:05.775Z,11.34
2022-11-17T17:57:34.124Z,11.33
2022-11-17T18:00:01.624Z,11.28
2022-11-17T18:02:31.894Z,11.31
2022-11-17T18:04:59.239Z,11.34
2022-11-17T18:07:26.890Z,11.24
2022-11-17T18:09:56.671Z,11.34
2022-11-17T18:12:24.189Z,11.26
2022-11-17T18:14:51.222Z,11.20
2022-11-17T18:17:18.528Z,11.16
2022-11-17T18:19:45.877Z,11.13
2022-11-17T18:22:13.812Z,11.19
2022-11-17T18:24:41.104Z,11.19
2022-11-17T18:27:09.222Z,11.15
2022-11-17T18:29:38.118Z,11.13
2022-11-17T18:32:06.555Z,11.07
2022-11-17T18:34:34.602Z,11.01
2022-11-17T18:37:08.174Z,11.01
2022-11-17T18:39:36.486Z,11.01
2022-11-17T18:42:03.846Z,10.90
2022-11-17T18:44:31.769Z,11.03
2022-11-17T18:47:02.696Z,11.04
2022-11-17T18:49:31.023Z,10.96
2022-11-17T18:51:58.397Z,10.97
2022-11-17T18:54:27.065Z,11.00
2022-11-17T18:56:54.352Z,11.03
2022-11-17T18:59:21.991Z,11.06
2022-11-17T19:01:50.391Z,11.14
2022-11-17T19:04:18.393Z,11.16
2022-11-17T19:06:45.722Z,11.18
2022-11-17T19:09:14.182Z,11.17
2022-11-17T19:11:41.652Z,11.21
2022-11-17T19:14:09.233Z,11.18
2022-11-17T19:16:44.346Z,11.18
2022-11-17T19:19:14.215Z,11.17
2022-11-17T19:21:42.659Z,11.15
2022-11-17T19:24:10.089Z,11.12
2022-11-17T19:26:37.388Z,11.05
2022-11-17T19:29:11.177Z,11.04
2022-11-17T19:31:42.094Z,10.93
2022-11-17T19:34:09.288Z,10.89
2022-11-17T19:36:36.648Z,10.91
2022-11-17T19:39:04.419Z,10.87
2022-11-17T19:41:37.495Z,10.95
2022-11-17T19:44:07.980Z,10.91
2022-11-17T19:46:36.883Z,10.83
2022-11-17T19:49:06.252Z,10.85
2022-11-17T19:51:37.103Z,10.87
2022-11-17T19:54:09.006Z,10.82
2022-11-17T19:56:37.048Z,10.78
2022-11-17T19:59:06.256Z,10.72
2022-11-17T20:01:34.592Z,10.64
2022-11-17T20:04:07.600Z,10.66
2022-11-17T20:06:38.675Z,10.54
2022-11-17T20:09:11.024Z,10.51
2022-11-17T20:11:38.616Z,10.47
2022-11-17T20:14:06.558Z,10.41
2022-11-17T20:16:34.411Z,10.34
2022-11-17T20:19:02.932Z,10.33
2022-11-17T20:21:33.445Z,10.31
2022-11-17T20:24:01.941Z,10.31
2022-11-17T20:26:32.973Z,10.33
2022-11-17T20:29:00.885Z,10.35
2022-11-17T20:31:34.167Z,10.36
2022-11-17T20:34:03.835Z,10.29
2022-11-17T20:36:33.109Z,10.15
2022-11-17T20:39:03.028Z,10.14
2022-11-17T20:41:30.595Z,10.05
2022-11-17T20:44:00.881Z,9.99
2022-11-17T20:46:28.994Z,9.95
2022-11-17T20:48:56.275Z,9.93
2022-11-17T20:51:25.390Z,9.88
2022-11-17T20:53:55.676Z,9.84
2022-11-17T20:56:22.958Z,9.83
2022-11-17T20:58:50.611Z,9.80
2022-11-17T21:01:23.607Z,9.73
2022-11-17T21:03:51.046Z,9.72
2022-11-17T21:06:20.832Z,9.67
2022-11-17T21:08:48.688Z,9.60
2022-11-17T21:11:37.884Z,9.63
2022-11-17T21:14:06.349Z,9.59
2022-11-17T21:16:38.194Z,9.56
2022-11-17T21:19:06.208Z,9.53
2022-11-17T21:21:34.689Z,9.50
2022-11-17T21:24:04.851Z,9.46
2022-11-17T21:26:32.968Z,9.42
2022-11-17T21:29:06.377Z,9.44
2022-11-17T21:31:38.654Z,9.42
2022-11-17T21:34:07.282Z,9.33
2022-11-17T21:36:36.115Z,9.33
2022-11-17T21:39:04.712Z,9.31
2022-11-17T21:41:56.323Z,9.17
2022-11-17T21:44:32.269Z,9.26
2022-11-17T21:46:59.681Z,9.24
2022-11-17T21:49:26.902Z,9.23
2022-11-17T21:51:54.122Z,9.20
2022-11-17T21:54:22.005Z,9.20
2022-11-17T21:56:49.269Z,9.16
2022-11-17T21:59:17.435Z,9.18
2022-11-17T22:01:45.007Z,9.18
2022-11-17T22:04:13.255Z,9.17
2022-11-17T22:06:40.532Z,9.17
2022-11-17T22:09:08.382Z,9.18
2022-11-17T22:11:35.995Z,9.17
2022-11-17T22:14:19.366Z,9.11
2022-11-17T22:16:52.464Z,9.07
2022-11-17T22:19:21.926Z,9.03
2022-11-17T22:21:52.405Z,8.91
2022-11-17T22:24:20.108Z,8.97
2022-11-17T22:26:48.108Z,8.91
2022-11-17T22:29:20.826Z,8.80
2022-11-17T22:32:13.175Z,8.82
2022-11-17T22:34:42.042Z,8.74
2022-11-17T22:37:09.589Z,8.80
2022-11-17T22:39:38.370Z,8.83
2022-11-17T22:42:08.764Z,8.80
2022-11-17T22:44:35.987Z,8.70
2022-11-17T22:47:04.609Z,8.70
2022-11-17T22:49:31.857Z,8.66
2022-11-17T22:52:04.980Z,8.66
2022-11-17T22:54:32.408Z,8.64
2022-11-17T22:57:00.249Z,8.63
2022-11-17T22:59:29.289Z,8.61
2022-11-17T23:01:57.318Z,8.62
2022-11-17T23:04:24.572Z,8.55
2022-11-17T23:06:52.008Z,8.55
2022-11-17T23:09:19.300Z,8.50
2022-11-17T23:11:46.935Z,8.44
2022-11-17T23:14:15.134Z,8.46
2022-11-17T23:16:42.294Z,8.46
2022-11-17T23:19:13.130Z,8.36
2022-11-17T23:21:41.000Z,8.41
2022-11-17T23:24:13.177Z,8.38
2022-11-17T23:26:42.053Z,8.34
2022-11-17T23:29:10.134Z,8.28
2022-11-17T23:31:37.358Z,8.26
2022-11-17T23:34:05.035Z,8.27
2022-11-17T23:36:32.502Z,8.17
2022-11-17T23:39:00.846Z,8.18
2022-11-17T23:41:29.392Z,8.16
2022-11-17T23:43:56.699Z,8.16
2022-11-17T23:46:25.896Z,8.18
2022-11-17T23:48:56.559Z,8.16
2022-11-17T23:51:26.931Z,8.16
2022-11-17T23:53:54.143Z,8.09
2022-11-17T23:56:22.073Z,8.02
2022-11-17T23:58:50.289Z,7.98
